FOK weather

Francis S Gabreski Airport
Westhampton Beach, New York, United States

Public forecast

Using degrees Fahrenheit for public forecast. Weather courtesy of forecast.io.

METAR (pilot weather report)

Retrieved 2019/07/21 06:53 UTC (52 minutes ago):

KFOK 210653Z 00000KT 7SM CLR 25/24 A2978 RMK AO2 SLP083 T02500239

TAF (pilot weather forecast)

Closest forecast is Long Island Mac Arthur Airport, 21.5 nm (39.8 km) W. Retrieved 2019/07/21 06:27 UTC (1 hour ago):

TAF KISP 210525Z 2106/2206 24005KT P6SM SCT250 FM211200 28009KT P6SM SCT250 FM211700 25010KT P6SM SCT050 SCT250 FM211900 23012G19KT P6SM FEW050 SCT250 FM212300 28011KT P6SM SCT060 BKN200 PROB30 2123/2202 TS BKN050CB FM220200 32008KT P6SM FEW060 SCT250 FM220500 36007KT P6SM SCT050 SCT150